Time;durP1;ratioP1;P1;durP2;ratioP2;P2;SDS_P1;SDS_P2;PMS_P1;PMS_P2;Temp;Humidity;BMP_temperature;BMP_pressure;BME280_temperature;BME280_humidity;BME280_pressure;Samples;Min_cycle;Max_cycle;Signal;HPM_P1;HPM_P2
2022/05/27 00:00:41;;;;;;;8.40;1.50;;;;;;;8.76;81.93;99376.04;105232;1271;73884;-71
2022/05/27 00:03:28;;;;;;;8.40;1.60;;;;;;;8.74;82.32;99370.82;104947;1271;60145;-69
2022/05/27 00:06:15;;;;;;;8.90;1.60;;;;;;;8.74;82.47;99367.89;105157;1271;60564;-69
2022/05/27 00:09:02;;;;;;;6.40;1.40;;;;;;;8.72;82.42;99360.36;105033;1271;73026;-70
2022/05/27 00:11:49;;;;;;;9.70;1.90;;;;;;;8.72;82.88;99351.89;105140;1271;68541;-69
2022/05/27 00:14:35;;;;;;;8.30;1.90;;;;;;;8.73;82.97;99351.80;105222;1271;74515;-70
2022/05/27 00:17:22;;;;;;;9.70;2.20;;;;;;;8.75;82.73;99353.63;105124;1271;59587;-68
2022/05/27 00:20:10;;;;;;;7.30;1.50;;;;;;;8.77;82.89;99349.56;105428;1271;59555;-70
2022/05/27 00:22:57;;;;;;;8.40;1.90;;;;;;;8.78;82.62;99349.82;105147;1271;74147;-69
2022/05/27 00:25:43;;;;;;;8.50;1.60;;;;;;;8.82;82.37;99351.27;105170;1271;65967;-68
2022/05/27 00:28:31;;;;;;;8.30;1.80;;;;;;;8.87;82.28;99346.11;104955;1271;73900;-72
2022/05/27 00:31:20;;;;;;;11.70;1.70;;;;;;;8.92;82.20;99343.73;104156;1271;1003135;-70
2022/05/27 00:34:09;;;;;;;6.70;1.30;;;;;;;9.00;81.79;99331.95;105118;1271;59628;-70
2022/05/27 00:36:56;;;;;;;8.60;1.50;;;;;;;9.07;81.75;99333.88;105103;1271;74676;-69
2022/05/27 00:39:43;;;;;;;11.80;1.50;;;;;;;9.10;81.34;99332.14;105046;1271;68437;-70
2022/05/27 00:42:29;;;;;;;6.80;1.30;;;;;;;9.14;81.41;99330.89;105100;1271;73455;-70
2022/05/27 00:45:21;;;;;;;9.50;1.90;;;;;;;9.19;81.42;99329.31;105210;1271;59709;-71
2022/05/27 00:48:17;;;;;;;7.40;1.40;;;;;;;9.25;81.36;99328.84;105035;1271;61001;-69
2022/05/27 00:51:16;;;;;;;7.30;1.20;;;;;;;9.30;81.17;99318.48;104970;1271;73583;-72
2022/05/27 00:54:12;;;;;;;6.80;1.40;;;;;;;9.35;81.28;99319.70;104932;1271;67598;-75
2022/05/27 00:57:07;;;;;;;6.60;1.30;;;;;;;9.39;81.01;99329.61;104926;1271;73174;-74
2022/05/27 01:00:00;;;;;;;7.40;1.50;;;;;;;9.42;80.74;99333.94;105091;1271;61323;-72
2022/05/27 01:02:48;;;;;;;9.10;1.60;;;;;;;9.46;81.03;99329.38;105249;1271;59660;-69
2022/05/27 01:05:34;;;;;;;8.20;1.40;;;;;;;9.49;81.05;99328.36;105104;1271;74085;-70
2022/05/27 01:08:26;;;;;;;7.20;1.20;;;;;;;9.52;81.22;99319.60;105081;1271;68118;-68
2022/05/27 01:11:40;;;;;;;7.10;1.40;;;;;;;9.53;82.12;99315.08;104931;1271;72247;-72
2022/05/27 01:14:29;;;;;;;9.00;1.90;;;;;;;9.53;82.47;99316.34;105101;1271;60556;-68
2022/05/27 01:17:48;;;;;;;7.20;1.30;;;;;;;9.53;83.14;99308.39;105183;1271;59641;-68
2022/05/27 01:21:11;;;;;;;8.30;1.70;;;;;;;9.54;83.46;99321.39;104383;1277;73760;-68
2022/05/27 01:24:33;;;;;;;8.60;1.30;;;;;;;9.56;83.95;99311.30;104383;1277;68404;-69
2022/05/27 01:28:20;;;;;;;7.50;1.40;;;;;;;9.58;84.41;99310.42;104419;1277;73141;-70
2022/05/27 01:31:52;;;;;;;8.40;1.60;;;;;;;9.59;84.60;99307.36;104307;1283;59748;-66
2022/05/27 01:34:47;;;;;;;6.70;1.40;;;;;;;9.58;84.60;99299.85;103562;1287;60322;-66
2022/05/27 01:38:36;;;;;;;5.40;1.40;;;;;;;9.58;84.66;99289.77;103647;1288;73819;-68
2022/05/27 01:41:43;;;;;;;8.70;1.60;;;;;;;9.58;84.53;99290.47;103588;1289;69532;-69
2022/05/27 01:44:36;;;;;;;9.70;1.50;;;;;;;9.58;85.22;99287.65;103488;1287;73312;-68
2022/05/27 01:47:37;;;;;;;8.40;1.50;;;;;;;9.58;85.15;99285.34;103316;1289;60080;-69
2022/05/27 01:50:48;;;;;;;7.20;1.40;;;;;;;9.58;85.72;99282.14;103521;1289;60533;-70
2022/05/27 01:53:55;;;;;;;8.80;1.70;;;;;;;9.59;85.99;99277.05;103652;1287;72931;-69
2022/05/27 01:57:08;;;;;;;7.10;1.50;;;;;;;9.61;85.90;99276.05;103627;1287;69591;-73
2022/05/27 02:00:18;;;;;;;8.60;1.90;;;;;;;9.62;85.98;99284.11;104281;1283;74349;-71
2022/05/27 02:03:37;;;;;;;6.80;1.40;;;;;;;9.63;86.08;99281.13;103890;1283;59778;-71
2022/05/27 02:06:35;;;;;;;11.60;1.50;;;;;;;9.63;86.46;99285.41;104560;1277;62164;-71
2022/05/27 02:09:45;;;;;;;11.70;1.60;;;;;;;9.64;86.44;99285.36;105084;1272;73771;-72
2022/05/27 02:12:47;;;;;;;8.20;1.40;;;;;;;9.65;86.31;99267.19;105267;1271;69632;-69
2022/05/27 02:15:45;;;;;;;8.20;1.50;;;;;;;9.66;86.31;99258.77;105177;1271;74238;-70
2022/05/27 02:18:52;;;;;;;6.70;1.60;;;;;;;9.66;86.08;99251.34;104894;1271;61193;-71
2022/05/27 02:22:06;;;;;;;7.30;1.20;;;;;;;9.65;87.24;99239.36;105070;1271;59774;-71
2022/05/27 02:25:22;;;;;;;8.30;1.30;;;;;;;9.63;86.60;99242.71;105005;1271;74647;-71
2022/05/27 02:28:19;;;;;;;7.60;1.50;;;;;;;9.59;86.59;99234.52;104964;1271;68780;-69
2022/05/27 02:31:33;;;;;;;8.50;1.40;;;;;;;9.55;87.18;99225.84;105186;1271;74604;-67
2022/05/27 02:37:53;;;;;;;7.80;1.40;;;;;;;9.50;86.91;99219.41;104799;1271;60286;-68
2022/05/27 02:41:13;;;;;;;7.10;1.40;;;;;;;9.48;86.68;99220.80;104954;1271;73715;-69
2022/05/27 02:44:32;;;;;;;7.90;1.60;;;;;;;9.49;86.55;99217.92;105090;1271;67614;-70
2022/05/27 02:47:30;;;;;;;8.70;1.60;;;;;;;9.48;87.29;99213.59;105047;1271;74402;-69
2022/05/27 02:50:36;;;;;;;7.30;1.70;;;;;;;9.44;87.24;99208.74;105032;1271;61062;-71
2022/05/27 02:53:47;;;;;;;5.90;1.20;;;;;;;9.43;87.07;99220.92;105635;1271;60528;-70
2022/05/27 02:57:01;;;;;;;8.70;1.60;;;;;;;9.40;87.06;99234.60;105032;1271;74606;-70
2022/05/27 02:59:52;;;;;;;7.90;1.70;;;;;;;9.38;86.97;99234.70;105172;1271;69460;-69
2022/05/27 03:02:39;;;;;;;7.20;1.40;;;;;;;9.38;86.90;99229.77;105347;1271;74469;-69
2022/05/27 03:05:40;;;;;;;5.80;1.50;;;;;;;9.41;86.90;99223.40;104093;1271;1003120;-70
2022/05/27 03:08:45;;;;;;;7.10;1.40;;;;;;;9.44;86.90;99219.05;104847;1271;62157;-70
2022/05/27 03:11:59;;;;;;;7.90;1.30;;;;;;;9.45;86.54;99220.17;105021;1271;73807;-72
2022/05/27 03:15:42;;;;;;;7.00;1.60;;;;;;;9.47;86.95;99214.90;104908;1271;68498;-68
2022/05/27 03:19:30;;;;;;;9.30;1.40;;;;;;;9.49;86.80;99213.79;104331;1279;74646;-70
2022/05/27 03:22:39;;;;;;;5.90;1.30;;;;;;;9.52;86.78;99210.85;104317;1279;59674;-69
2022/05/27 03:25:42;;;;;;;5.70;1.20;;;;;;;9.52;87.15;99199.69;104250;1279;59547;-70
2022/05/27 03:28:43;;;;;;;5.70;1.40;;;;;;;9.54;87.28;99200.09;104377;1279;73757;-68
2022/05/27 03:31:41;;;;;;;6.10;1.30;;;;;;;9.57;87.49;99199.14;104366;1279;69394;-67
2022/05/27 03:35:02;;;;;;;7.60;1.40;;;;;;;9.58;88.40;99191.80;104244;1280;74589;-70
2022/05/27 03:38:01;;;;;;;6.00;1.50;;;;;;;9.59;88.28;99187.13;104320;1279;59770;-69
2022/05/27 03:41:04;;;;;;;6.40;1.50;;;;;;;9.61;88.32;99185.04;104270;1280;62072;-68
2022/05/27 03:43:53;;;;;;;6.10;1.30;;;;;;;9.63;88.67;99186.52;104471;1280;72907;-68
2022/05/27 03:46:39;;;;;;;6.30;1.40;;;;;;;9.66;88.59;99188.23;104335;1280;69617;-67
2022/05/27 03:49:27;;;;;;;7.80;1.30;;;;;;;9.70;88.52;99180.29;104485;1279;73708;-67
2022/05/27 03:52:27;;;;;;;6.10;1.20;;;;;;;9.76;88.59;99180.53;104366;1279;60542;-66
2022/05/27 03:55:18;;;;;;;6.50;1.20;;;;;;;9.82;88.60;99177.10;104371;1274;62014;-70
2022/05/27 03:58:04;;;;;;;7.80;1.30;;;;;;;9.89;88.34;99176.33;105100;1271;74253;-69
2022/05/27 04:00:51;;;;;;;7.70;1.20;;;;;;;9.97;88.11;99172.77;104775;1271;69405;-67
2022/05/27 04:03:37;;;;;;;5.50;1.40;;;;;;;10.04;87.60;99169.82;104941;1271;73733;-67
2022/05/27 04:06:27;;;;;;;7.50;1.40;;;;;;;10.07;87.57;99161.40;104836;1274;59770;-68
2022/05/27 04:09:17;;;;;;;4.60;1.20;;;;;;;10.09;87.47;99154.00;104942;1271;59531;-69
2022/05/27 04:12:05;;;;;;;6.10;1.30;;;;;;;10.11;87.28;99156.45;104880;1271;73755;-69
2022/05/27 04:14:53;;;;;;;5.20;1.40;;;;;;;10.15;87.25;99152.16;104952;1273;69580;-71
2022/05/27 04:17:42;;;;;;;7.30;1.40;;;;;;;10.25;87.29;99151.80;104724;1271;73303;-65
2022/05/27 04:20:28;;;;;;;5.30;1.30;;;;;;;10.32;86.79;99146.06;104908;1271;60254;-67
2022/05/27 04:23:15;;;;;;;6.20;1.40;;;;;;;10.34;86.93;99142.69;104936;1271;60437;-66
2022/05/27 04:26:03;;;;;;;5.40;1.10;;;;;;;10.35;86.89;99133.19;104882;1271;72385;-63
2022/05/27 04:28:50;;;;;;;5.50;1.10;;;;;;;10.34;86.97;99127.97;104852;1271;68544;-70
2022/05/27 04:31:36;;;;;;;7.00;1.30;;;;;;;10.35;87.34;99125.42;104852;1271;73274;-64
2022/05/27 04:34:23;;;;;;;6.50;1.50;;;;;;;10.39;87.16;99123.98;104861;1271;59846;-69
2022/05/27 04:37:11;;;;;;;8.30;1.50;;;;;;;10.42;87.26;99119.00;104889;1271;60499;-65
2022/05/27 04:39:57;;;;;;;6.40;1.30;;;;;;;10.43;87.38;99120.12;104732;1271;73980;-68
2022/05/27 04:42:44;;;;;;;6.50;1.40;;;;;;;10.47;87.34;99110.89;104882;1271;66782;-68
2022/05/27 04:45:31;;;;;;;5.60;1.10;;;;;;;10.52;86.85;99101.14;104898;1271;73536;-68
2022/05/27 04:48:20;;;;;;;6.20;1.40;;;;;;;10.55;87.01;99094.17;104831;1271;59633;-70
2022/05/27 04:51:07;;;;;;;7.30;1.60;;;;;;;10.54;86.99;99089.49;104840;1271;60831;-62
2022/05/27 04:53:54;;;;;;;5.90;1.40;;;;;;;10.53;86.95;99096.30;104800;1271;73549;-67
2022/05/27 04:56:40;;;;;;;7.10;1.50;;;;;;;10.52;87.57;99096.22;104794;1271;68540;-65
2022/05/27 04:59:27;;;;;;;6.90;1.50;;;;;;;10.49;88.25;99086.59;104826;1272;72176;-69
2022/05/27 05:02:17;;;;;;;6.10;1.40;;;;;;;10.48;88.34;99086.85;104861;1271;59608;-69
2022/05/27 05:05:04;;;;;;;5.70;1.40;;;;;;;10.46;88.86;99085.95;105040;1271;60300;-67
2022/05/27 05:08:02;;;;;;;5.80;1.60;;;;;;;10.46;89.10;99079.57;104874;1271;73361;-67
2022/05/27 05:10:48;;;;;;;6.80;1.70;;;;;;;10.51;89.12;99075.55;104903;1270;65764;-71
2022/05/27 05:13:35;;;;;;;7.30;1.40;;;;;;;10.55;88.98;99074.27;104807;1271;74347;-67
2022/05/27 05:16:21;;;;;;;6.10;1.40;;;;;;;10.58;89.33;99081.84;104568;1270;292968;-68
2022/05/27 05:19:08;;;;;;;5.50;1.30;;;;;;;10.61;89.38;99082.45;104847;1271;59719;-69
2022/05/27 05:21:55;;;;;;;6.70;1.60;;;;;;;10.68;89.14;99074.67;104893;1271;71997;-68
2022/05/27 05:24:41;;;;;;;5.60;1.70;;;;;;;10.75;89.41;99061.14;104964;1271;68119;-69
2022/05/27 05:27:29;;;;;;;5.40;1.40;;;;;;;10.85;88.88;99058.40;104923;1271;73406;-67
2022/05/27 05:30:21;;;;;;;8.20;1.60;;;;;;;10.92;89.11;99049.92;104719;1274;59845;-70
2022/05/27 05:33:07;;;;;;;7.80;1.80;;;;;;;11.05;88.76;99038.77;104694;1274;62194;-66
2022/05/27 05:35:54;;;;;;;5.20;1.50;;;;;;;11.16;88.45;99032.70;105067;1274;73563;-71
2022/05/27 05:38:41;;;;;;;6.60;1.50;;;;;;;11.37;88.23;99024.48;104844;1271;67732;-68
2022/05/27 05:41:37;;;;;;;5.70;1.40;;;;;;;11.76;86.69;99020.83;104856;1274;74400;-69
2022/05/27 05:44:26;;;;;;;5.40;1.30;;;;;;;12.69;83.67;99017.00;104981;1271;59673;-68
2022/05/27 05:47:14;;;;;;;6.10;1.50;;;;;;;12.71;81.28;99013.27;105014;1274;60393;-67
2022/05/27 05:50:00;;;;;;;5.50;1.50;;;;;;;12.74;81.23;99013.85;105062;1271;73721;-67
2022/05/27 05:52:47;;;;;;;5.80;1.30;;;;;;;12.94;80.52;98996.63;104977;1274;68541;-67
2022/05/27 05:55:35;;;;;;;5.80;1.30;;;;;;;13.41;78.46;98997.80;104926;1271;72846;-71
2022/05/27 05:58:22;;;;;;;6.20;1.30;;;;;;;13.52;77.62;98994.48;104844;1274;59740;-70
2022/05/27 06:01:09;;;;;;;7.10;1.30;;;;;;;13.70;76.71;98988.70;105023;1271;62031;-65
2022/05/27 06:03:56;;;;;;;7.00;1.30;;;;;;;13.60;76.33;98977.27;104961;1271;74814;-67
2022/05/27 06:06:43;;;;;;;6.10;1.50;;;;;;;13.58;75.98;98970.71;104836;1271;69623;-68
2022/05/27 06:09:29;;;;;;;6.70;1.40;;;;;;;13.69;75.03;98964.41;104969;1271;74623;-70
2022/05/27 06:12:22;;;;;;;5.50;1.20;;;;;;;14.65;72.46;98954.52;104883;1271;61299;-69
2022/05/27 06:15:14;;;;;;;6.00;1.00;;;;;;;16.39;65.09;98935.30;104935;1271;60771;-71
2022/05/27 06:18:00;;;;;;;4.60;1.00;;;;;;;17.89;59.52;98928.22;104795;1274;74656;-71
2022/05/27 06:20:46;;;;;;;5.70;1.20;;;;;;;19.37;53.61;98913.39;104934;1271;69375;-72
2022/05/27 06:23:33;;;;;;;4.00;1.00;;;;;;;20.60;48.49;98909.38;104901;1271;73385;-67
2022/05/27 06:26:20;;;;;;;5.40;1.10;;;;;;;21.43;45.78;98907.64;104883;1271;59745;-68
2022/05/27 06:35:17;;;;;;;6.80;1.30;;;;;;;20.30;46.94;98932.64;105162;1271;68251;-67
2022/05/27 06:38:04;;;;;;;4.60;0.90;;;;;;;20.18;46.51;98926.83;104884;1271;74665;-67
2022/05/27 06:40:51;;;;;;;4.90;0.90;;;;;;;19.08;49.21;98920.73;104990;1271;60246;-70
2022/05/27 06:43:38;;;;;;;4.40;1.00;;;;;;;18.11;52.03;98915.38;104898;1271;59518;-69
2022/05/27 06:46:24;;;;;;;5.00;0.90;;;;;;;18.17;52.10;98900.42;104938;1274;74585;-69
2022/05/27 06:49:12;;;;;;;4.90;1.10;;;;;;;18.84;50.45;98890.14;104969;1271;68451;-67
2022/05/27 06:51:59;;;;;;;5.90;0.80;;;;;;;19.30;49.95;98874.92;104976;1273;72925;-68
2022/05/27 06:54:45;;;;;;;4.60;0.80;;;;;;;19.55;48.88;98864.13;104964;1271;59769;-69
2022/05/27 06:57:34;;;;;;;4.10;0.80;;;;;;;19.38;48.85;98868.38;104944;1274;60386;-68
2022/05/27 07:00:20;;;;;;;5.30;0.80;;;;;;;19.75;47.23;98870.74;104881;1271;73572;-68
2022/05/27 07:03:07;;;;;;;4.20;0.80;;;;;;;19.33;48.11;98872.45;104771;1271;69576;-67
2022/05/27 07:05:54;;;;;;;5.30;0.90;;;;;;;19.11;48.97;98867.54;104808;1274;72786;-69
2022/05/27 07:08:40;;;;;;;4.70;0.80;;;;;;;19.16;48.40;98860.25;104986;1271;59668;-67
2022/05/27 07:11:29;;;;;;;4.60;0.80;;;;;;;21.10;44.69;98853.25;104961;1271;61543;-70
2022/05/27 07:14:17;;;;;;;3.90;0.80;;;;;;;21.53;42.47;98854.87;104801;1274;74664;-68
2022/05/27 07:17:05;;;;;;;5.10;1.00;;;;;;;20.26;45.21;98854.72;104988;1271;65597;-68
2022/05/27 07:19:57;;;;;;;3.50;0.80;;;;;;;19.27;48.71;98872.11;104841;1274;74797;-67
2022/05/27 07:22:47;;;;;;;5.30;1.00;;;;;;;18.12;52.20;98892.46;104991;1271;59739;-65
2022/05/27 07:25:34;;;;;;;3.80;0.80;;;;;;;16.98;56.04;98896.94;105055;1271;60351;-69
2022/05/27 07:28:26;;;;;;;4.70;0.80;;;;;;;15.99;60.11;98897.55;104925;1271;74137;-67
2022/05/27 07:31:17;;;;;;;4.50;0.90;;;;;;;15.15;62.69;98892.06;104903;1271;68584;-65
2022/05/27 07:34:04;;;;;;;4.20;1.00;;;;;;;14.74;64.53;98893.91;104849;1271;74424;-66
2022/05/27 07:36:51;;;;;;;5.00;1.10;;;;;;;14.79;65.71;98889.75;104976;1271;59655;-66
2022/05/27 07:39:37;;;;;;;4.20;1.10;;;;;;;16.22;62.61;98882.45;104938;1271;62114;-68
2022/05/27 07:42:24;;;;;;;6.10;1.20;;;;;;;18.13;57.45;98874.16;104922;1271;74151;-68
2022/05/27 07:45:13;;;;;;;5.90;1.20;;;;;;;18.17;56.42;98876.73;104848;1272;68712;-67
2022/05/27 07:47:59;;;;;;;4.70;1.10;;;;;;;18.62;55.23;98867.85;104650;1274;72357;-66
2022/05/27 07:50:46;;;;;;;7.20;1.20;;;;;;;18.52;53.92;98859.97;104887;1271;59676;-69
2022/05/27 07:53:34;;;;;;;5.30;1.30;;;;;;;18.16;55.07;98864.80;105001;1271;61368;-67
2022/05/27 07:56:21;;;;;;;6.20;1.30;;;;;;;18.06;55.29;98873.30;105002;1271;74625;-67
2022/05/27 07:59:08;;;;;;;5.50;1.10;;;;;;;16.75;57.35;98897.98;105003;1271;69587;-67
2022/05/27 08:01:55;;;;;;;8.00;1.30;;;;;;;15.71;59.30;98894.41;104907;1271;73240;-67
2022/05/27 08:04:42;;;;;;;6.10;1.30;;;;;;;15.06;59.96;98898.99;104886;1271;59527;-66
2022/05/27 08:07:28;;;;;;;5.80;1.20;;;;;;;15.00;61.42;98905.09;104705;1272;60468;-67
2022/05/27 08:10:19;;;;;;;7.20;1.30;;;;;;;15.66;60.47;98903.53;104857;1271;73417;-68
2022/05/27 08:13:07;;;;;;;6.90;1.50;;;;;;;15.44;61.35;98899.48;104853;1271;69323;-68
2022/05/27 08:15:55;;;;;;;6.50;1.50;;;;;;;15.15;62.11;98900.85;104924;1271;73134;-68
2022/05/27 08:18:42;;;;;;;7.20;1.50;;;;;;;15.34;60.21;98895.33;104690;1275;59742;-66
2022/05/27 08:21:30;;;;;;;6.60;1.40;;;;;;;16.75;56.20;98889.74;104632;1274;61831;-68
2022/05/27 08:24:16;;;;;;;7.00;1.80;;;;;;;18.27;52.45;98880.95;104673;1274;73125;-71
2022/05/27 08:27:03;;;;;;;6.70;1.60;;;;;;;19.47;45.55;98879.01;104747;1271;69697;-69
2022/05/27 08:29:51;;;;;;;6.70;2.20;;;;;;;20.13;42.16;98869.98;104950;1272;73230;-68
2022/05/27 08:32:38;;;;;;;7.70;2.00;;;;;;;20.80;39.59;98866.52;104891;1271;59774;-69
2022/05/27 08:38:34;;;;;;;7.40;1.30;;;;;;;21.84;35.91;98858.88;104892;1271;72999;-67
2022/05/27 08:41:45;;;;;;;7.00;1.30;;;;;;;21.98;35.37;98854.50;104893;1274;68327;-71
2022/05/27 08:45:07;;;;;;;6.60;1.20;;;;;;;21.76;34.48;98860.70;105423;1271;74297;-71
2022/05/27 08:47:59;;;;;;;5.70;1.20;;;;;;;22.15;34.95;98863.79;104834;1271;59681;-67
2022/05/27 08:51:12;;;;;;;6.00;1.20;;;;;;;22.37;34.53;98865.87;104831;1274;60964;-70
2022/05/27 08:54:15;;;;;;;6.80;1.90;;;;;;;22.35;34.69;98861.02;104866;1271;74068;-67
2022/05/27 09:00:24;;;;;;;7.60;1.20;;;;;;;22.75;34.15;98870.92;104991;1271;73667;-66
2022/05/27 09:03:14;;;;;;;7.30;1.30;;;;;;;22.18;34.85;98880.02;104976;1272;59666;-66
2022/05/27 09:06:05;;;;;;;7.30;1.60;;;;;;;21.10;36.20;98874.94;104919;1271;60641;-67
2022/05/27 09:08:51;;;;;;;7.00;1.40;;;;;;;20.87;36.85;98874.91;104924;1274;73894;-67
2022/05/27 09:11:56;;;;;;;8.20;1.20;;;;;;;20.52;37.61;98870.37;104943;1271;69419;-68
2022/05/27 09:15:09;;;;;;;7.20;1.50;;;;;;;20.97;37.11;98870.41;104907;1271;74283;-68
2022/05/27 09:18:24;;;;;;;8.30;1.80;;;;;;;21.45;35.17;98870.25;104831;1271;59630;-69
2022/05/27 09:21:28;;;;;;;8.10;2.70;;;;;;;21.93;34.42;98872.05;105251;1271;59559;-69
2022/05/27 09:24:48;;;;;;;6.90;1.50;;;;;;;22.01;34.45;98871.39;104796;1271;73471;-69
2022/05/27 09:27:46;;;;;;;9.80;1.40;;;;;;;22.49;33.42;98870.24;105051;1271;68429;-68
2022/05/27 09:30:35;;;;;;;9.20;1.50;;;;;;;22.37;33.14;98875.04;105237;1274;74379;-67
2022/05/27 09:33:23;;;;;;;10.90;3.30;;;;;;;21.65;34.50;98893.88;104861;1271;60516;-69
2022/05/27 09:36:18;;;;;;;9.70;1.90;;;;;;;20.80;35.95;98912.00;104883;1271;59656;-67
2022/05/27 09:39:16;;;;;;;7.10;1.20;;;;;;;20.59;34.29;98911.01;105179;1271;74022;-68
2022/05/27 09:42:22;;;;;;;8.90;1.20;;;;;;;20.90;32.51;98901.61;105003;1271;67448;-68
2022/05/27 09:45:08;;;;;;;12.60;5.80;;;;;;;21.01;32.20;98906.34;104870;1271;74484;-70
2022/05/27 09:48:00;;;;;;;10.40;1.40;;;;;;;21.19;31.36;98914.81;104933;1271;59635;-67
2022/05/27 09:50:49;;;;;;;7.70;1.40;;;;;;;21.27;31.64;98912.19;104804;1271;60564;-68
2022/05/27 09:53:48;;;;;;;6.90;1.20;;;;;;;21.69;30.15;98913.73;105038;1271;73503;-67
2022/05/27 09:56:56;;;;;;;10.10;1.20;;;;;;;21.61;29.04;98913.48;104743;1274;68323;-70
2022/05/27 09:59:53;;;;;;;9.10;1.60;;;;;;;21.84;29.74;98913.95;104957;1271;73364;-70
2022/05/27 10:02:40;;;;;;;8.50;1.30;;;;;;;21.40;30.90;98922.15;104829;1271;59717;-69
2022/05/27 10:05:30;;;;;;;8.70;1.40;;;;;;;20.86;31.84;98924.75;104774;1271;59653;-67
2022/05/27 10:08:36;;;;;;;6.20;1.60;;;;;;;20.60;32.05;98930.88;104768;1271;73856;-69
2022/05/27 10:11:34;;;;;;;8.40;1.50;;;;;;;19.85;33.65;98935.89;104833;1271;69112;-68
2022/05/27 10:14:34;;;;;;;7.20;1.30;;;;;;;18.70;35.50;98942.66;104932;1271;73437;-70
2022/05/27 10:17:37;;;;;;;6.10;1.30;;;;;;;17.66;37.43;98940.69;104918;1271;59727;-71
2022/05/27 10:20:34;;;;;;;6.30;1.30;;;;;;;17.07;39.20;98950.70;105097;1271;61094;-68
2022/05/27 10:23:27;;;;;;;8.60;1.40;;;;;;;16.83;39.63;98952.29;105086;1273;76397;-70
2022/05/27 10:26:22;;;;;;;8.50;1.20;;;;;;;16.37;41.05;98944.58;104661;1274;69736;-68
2022/05/27 10:29:16;;;;;;;8.70;1.20;;;;;;;16.93;40.21;98950.79;104846;1274;74416;-69
2022/05/27 10:32:04;;;;;;;7.00;1.10;;;;;;;18.03;37.83;98951.90;105047;1271;60309;-69
2022/05/27 10:34:51;;;;;;;6.40;1.30;;;;;;;19.38;35.10;98950.21;105225;1271;60356;-69
2022/05/27 10:38:12;;;;;;;6.90;1.20;;;;;;;20.14;32.72;98944.84;104848;1271;73576;-69
2022/05/27 10:41:19;;;;;;;7.60;1.30;;;;;;;20.80;32.11;98928.88;105038;1271;68664;-69
2022/05/27 10:44:18;;;;;;;6.40;1.70;;;;;;;20.65;32.29;98935.02;104865;1271;73767;-68
2022/05/27 10:47:28;;;;;;;7.80;1.40;;;;;;;19.97;33.32;98946.32;104897;1271;59678;-68
2022/05/27 10:50:56;;;;;;;6.70;1.40;;;;;;;18.86;34.89;98952.11;105120;1271;60243;-69
2022/05/27 10:54:04;;;;;;;7.30;1.30;;;;;;;18.52;34.69;98950.02;104785;1271;74783;-69
2022/05/27 11:05:05;;;;;;;10.50;1.20;;;;;;;19.19;34.54;98949.26;104961;1271;59764;-70
2022/05/27 11:08:25;;;;;;;7.70;1.10;;;;;;;17.96;36.30;98965.96;104688;1274;60570;-64
2022/05/27 11:11:49;;;;;;;8.30;1.30;;;;;;;17.04;38.34;98961.98;105021;1271;74591;-70
2022/05/27 11:18:42;;;;;;;5.50;1.10;;;;;;;17.54;39.02;98964.55;105128;1271;74249;-70
2022/05/27 11:21:50;;;;;;;6.80;1.00;;;;;;;17.00;39.02;98973.38;104302;1277;59645;-70
2022/05/27 11:25:11;;;;;;;6.60;1.20;;;;;;;16.73;39.21;98968.31;104264;1277;59735;-67
2022/05/27 11:28:06;;;;;;;7.70;1.10;;;;;;;16.91;39.52;98972.83;104587;1277;74835;-66
2022/05/27 11:31:14;;;;;;;7.90;1.40;;;;;;;16.86;39.84;98980.73;104411;1280;68357;-69
2022/05/27 11:34:36;;;;;;;7.90;1.20;;;;;;;17.00;38.15;98979.93;104676;1277;73375;-70
2022/05/27 11:37:58;;;;;;;7.50;1.30;;;;;;;16.91;38.89;98967.70;104591;1279;59788;-70
2022/05/27 11:41:13;;;;;;;6.90;1.10;;;;;;;16.84;38.35;98974.77;105158;1284;59650;-68
2022/05/27 11:44:05;;;;;;;6.70;1.40;;;;;;;16.59;38.33;98979.69;105306;1284;73568;-69
2022/05/27 11:47:38;;;;;;;6.40;1.30;;;;;;;16.40;38.28;98975.02;105157;1284;68599;-68
2022/05/27 11:50:30;;;;;;;7.70;1.10;;;;;;;16.19;38.94;98975.03;104781;1284;71743;-68
2022/05/27 11:53:46;;;;;;;8.30;1.20;;;;;;;16.12;39.33;98979.02;103913;1284;59881;-71
2022/05/27 11:56:43;;;;;;;6.50;1.00;;;;;;;16.08;39.85;98973.62;104075;1284;59747;-68
2022/05/27 11:59:46;;;;;;;6.90;1.10;;;;;;;16.14;38.65;98979.17;104400;1277;74027;-69
2022/05/27 12:02:57;;;;;;;8.40;1.60;;;;;;;16.18;37.77;98981.58;104564;1277;67300;-71
2022/05/27 12:06:02;;;;;;;7.70;1.40;;;;;;;16.20;38.50;98980.96;104253;1278;73425;-68
2022/05/27 12:09:04;;;;;;;5.70;1.20;;;;;;;16.09;38.84;98972.93;104609;1277;60163;-70
2022/05/27 12:12:19;;;;;;;9.90;1.60;;;;;;;16.19;39.20;98980.73;104508;1277;60168;-67
2022/05/27 12:15:16;;;;;;;6.60;1.20;;;;;;;16.16;39.42;98977.18;104499;1277;74779;-67
2022/05/27 12:18:09;;;;;;;7.10;1.20;;;;;;;15.89;39.77;98989.06;104793;1271;68604;-68
2022/05/27 12:20:57;;;;;;;7.00;1.20;;;;;;;15.54;40.62;98983.09;105176;1271;73345;-66
2022/05/27 12:24:20;;;;;;;10.30;1.20;;;;;;;15.47;41.58;98984.39;104828;1274;59653;-65
2022/05/27 12:27:12;;;;;;;5.80;1.20;;;;;;;15.35;41.09;98983.98;104291;1280;60293;-67
2022/05/27 12:29:59;;;;;;;8.60;1.60;;;;;;;15.17;41.19;98977.48;104258;1279;73715;-66
2022/05/27 12:32:48;;;;;;;7.80;1.50;;;;;;;15.21;42.14;98983.63;104436;1279;69750;-67
2022/05/27 12:35:34;;;;;;;11.40;1.80;;;;;;;15.20;42.40;98973.38;104332;1279;73609;-68
2022/05/27 12:38:30;;;;;;;8.20;1.70;;;;;;;15.10;41.22;98984.65;104157;1279;59725;-68
2022/05/27 12:41:35;;;;;;;12.00;1.90;;;;;;;15.10;41.09;98980.09;104198;1279;60421;-67
2022/05/27 12:44:25;;;;;;;10.70;1.90;;;;;;;14.89;41.58;98987.39;104132;1280;72815;-67
2022/05/27 12:47:36;;;;;;;10.00;1.60;;;;;;;14.78;42.05;98981.63;104166;1279;68701;-67
2022/05/27 12:50:34;;;;;;;9.20;1.70;;;;;;;14.67;42.12;98988.56;104427;1279;74362;-67
2022/05/27 12:53:43;;;;;;;10.00;1.40;;;;;;;14.66;41.35;98987.34;104037;1280;60817;-70
2022/05/27 13:02:54;;;;;;;8.20;1.40;;;;;;;15.05;40.32;98978.48;104492;1279;65781;-67
2022/05/27 13:06:12;;;;;;;11.80;1.90;;;;;;;15.16;39.30;98981.38;104794;1271;73428;-66
2022/05/27 13:09:06;;;;;;;8.60;1.70;;;;;;;15.31;39.05;98974.92;104983;1271;59742;-65
2022/05/27 13:11:52;;;;;;;7.10;1.40;;;;;;;15.40;38.07;98978.30;104667;1271;59550;-68
2022/05/27 13:14:51;;;;;;;12.90;1.70;;;;;;;15.42;38.08;98990.92;104903;1271;73749;-67
2022/05/27 13:17:49;;;;;;;9.10;1.40;;;;;;;15.53;37.68;98984.45;105146;1271;65973;-67
2022/05/27 13:20:53;;;;;;;7.70;1.50;;;;;;;15.63;37.70;98991.86;104762;1274;74328;-66
2022/05/27 13:24:00;;;;;;;11.20;1.40;;;;;;;15.56;38.04;98978.23;104974;1274;59638;-66
2022/05/27 13:26:55;;;;;;;11.10;1.60;;;;;;;15.68;38.22;98980.55;104775;1272;60376;-66
2022/05/27 13:29:44;;;;;;;6.20;1.30;;;;;;;15.79;37.98;98979.48;104869;1271;74654;-66
2022/05/27 13:32:52;;;;;;;7.10;1.40;;;;;;;15.80;36.89;98980.95;104839;1271;69584;-68
2022/05/27 13:35:44;;;;;;;7.90;1.40;;;;;;;15.82;37.51;98984.48;105061;1271;73441;-66
2022/05/27 13:38:39;;;;;;;7.30;1.30;;;;;;;15.54;37.90;98981.45;104766;1271;59761;-66
2022/05/27 13:41:50;;;;;;;8.00;1.50;;;;;;;15.33;38.52;98979.04;105004;1271;62066;-67
2022/05/27 13:44:46;;;;;;;9.00;1.20;;;;;;;15.37;38.79;98978.20;105035;1271;73743;-68
2022/05/27 13:48:05;;;;;;;7.40;1.10;;;;;;;15.31;38.71;98973.35;105169;1271;68649;-67
2022/05/27 13:51:10;;;;;;;9.10;1.80;;;;;;;15.23;38.97;98976.20;105277;1270;76264;-67
2022/05/27 13:54:12;;;;;;;8.20;1.60;;;;;;;15.51;39.35;98980.36;105183;1271;59765;-67
2022/05/27 13:57:05;;;;;;;9.40;1.50;;;;;;;15.60;39.43;98959.83;105123;1274;59582;-67
2022/05/27 13:59:53;;;;;;;7.50;1.30;;;;;;;15.59;39.24;98969.55;104999;1274;73800;-65
2022/05/27 14:02:47;;;;;;;8.20;1.50;;;;;;;15.58;38.98;98964.37;104949;1274;68570;-69
2022/05/27 14:05:34;;;;;;;11.40;1.70;;;;;;;15.64;39.23;98970.98;104695;1271;74275;-65
2022/05/27 14:08:33;;;;;;;12.00;1.60;;;;;;;15.66;39.08;98972.58;104783;1271;59757;-66
2022/05/27 14:11:30;;;;;;;9.00;1.60;;;;;;;15.63;38.95;98963.73;104814;1271;59902;-66
2022/05/27 14:14:31;;;;;;;10.20;1.90;;;;;;;15.70;39.05;98969.94;104724;1274;74614;-67
2022/05/27 14:17:21;;;;;;;10.00;1.50;;;;;;;15.74;38.56;98966.30;104645;1273;68545;-64